Time;durP1;ratioP1;P1;durP2;ratioP2;P2;SDS_P1;SDS_P2;PMS_P1;PMS_P2;Temp;Humidity;BMP_temperature;BMP_pressure;BME280_temperature;BME280_humidity;BME280_pressure;Samples;Min_cycle;Max_cycle;Signal;HPM_P1;HPM_P2
2019/04/26 00:02:02;;;;;;;6.6;1.9;;;;;;;15.01;51.14844;952.9922;;;;
2019/04/26 00:04:21;;;;;;;5.1;2.1;;;;;;;14.93;51.37207;952.9012;;;;
2019/04/26 00:06:46;;;;;;;5;1.9;;;;;;;14.82;51.88086;952.9217;;;;
2019/04/26 00:09:22;;;;;;;6.4;1.9;;;;;;;14.63;53.00879;952.9832;;;;
2019/04/26 00:11:52;;;;;;;7.5;1.9;;;;;;;14.59;53.2832;952.9924;;;;
2019/04/26 00:14:24;;;;;;;6.2;1.5;;;;;;;14.48;53.68848;953.1003;;;;
2019/04/26 00:16:31;;;;;;;3.2;1.3;;;;;;;14.47;54.13867;953.1019;;;;
2019/04/26 00:18:53;;;;;;;5.3;1.6;;;;;;;14.37;54.7998;953.0347;;;;
2019/04/26 00:21:17;;;;;;;5.1;1.3;;;;;;;14.22;55.33789;953.1872;;;;
2019/04/26 00:23:42;;;;;;;3.6;1.4;;;;;;;14.14;55.81641;953.1342;;;;
2019/04/26 00:26:08;;;;;;;3.9;1.4;;;;;;;14.17;55.9707;953.2103;;;;
2019/04/26 00:28:33;;;;;;;5.3;1.3;;;;;;;14.13;56.09375;953.127;;;;
2019/04/26 00:30:58;;;;;;;3.2;1.1;;;;;;;14.03;56.47461;953.1121;;;;
2019/04/26 00:33:23;;;;;;;5.1;1.6;;;;;;;14.03;56.39258;953.0989;;;;
2019/04/26 00:35:49;;;;;;;5.8;1.1;;;;;;;13.94;56.74219;953.1002;;;;
2019/04/26 00:38:14;;;;;;;4.5;1.1;;;;;;;13.85;57.25098;953.0883;;;;
2019/04/26 00:40:39;;;;;;;2.9;1.1;;;;;;;13.77;57.39258;953.1319;;;;
2019/04/26 00:43:05;;;;;;;4.5;1.2;;;;;;;13.79;57.19727;953.1038;;;;
2019/04/26 00:45:30;;;;;;;4.8;1.3;;;;;;;13.77;57.35645;953.1106;;;;
2019/04/26 00:47:56;;;;;;;4.3;1.3;;;;;;;13.76;57.25098;953.0941;;;;
2019/04/26 00:50:21;;;;;;;5.5;1.5;;;;;;;13.7;57.69629;953.1003;;;;
2019/04/26 00:52:46;;;;;;;3.3;1.1;;;;;;;13.66;57.67871;952.9955;;;;
2019/04/26 00:55:11;;;;;;;3.8;1.2;;;;;;;13.59;57.93555;952.995;;;;
2019/04/26 00:57:36;;;;;;;7.9;1.6;;;;;;;13.52;58.25;953.0598;;;;
2019/04/26 01:00:02;;;;;;;2.9;1.1;;;;;;;13.55;58.06836;953.0172;;;;
2019/04/26 01:02:33;;;;;;;2.9;1.1;;;;;;;13.45;58.25391;952.9617;;;;
2019/04/26 01:04:52;;;;;;;3.1;1.2;;;;;;;13.38;58.66113;952.8998;;;;
2019/04/26 01:07:18;;;;;;;3;1.1;;;;;;;13.43;58.50488;952.8775;;;;
2019/04/26 01:09:47;;;;;;;4.2;1.1;;;;;;;13.39;58.55664;952.8647;;;;
2019/04/26 01:12:12;;;;;;;3.6;1.2;;;;;;;13.18;59.23633;952.8254;;;;
2019/04/26 01:14:38;;;;;;;3.4;1.1;;;;;;;13.17;59.25781;952.8405;;;;
2019/04/26 01:17:03;;;;;;;2.3;1;;;;;;;13.13;59.48438;952.8182;;;;
2019/04/26 01:19:28;;;;;;;4.9;1.4;;;;;;;13.03;60.11914;952.8201;;;;
2019/04/26 01:21:58;;;;;;;3.6;1.1;;;;;;;13.1;60.15039;952.743;;;;
2019/04/26 01:24:24;;;;;;;5.1;1.4;;;;;;;13.1;59.89746;952.8078;;;;
2019/04/26 01:26:49;;;;;;;2.8;1.3;;;;;;;13.04;60.08496;952.8799;;;;
2019/04/26 01:29:14;;;;;;;3.6;1.3;;;;;;;13.09;59.57031;952.7963;;;;
2019/04/26 01:31:39;;;;;;;2.7;1.3;;;;;;;13.02;59.97852;952.7686;;;;
2019/04/26 01:34:04;;;;;;;4.1;1.2;;;;;;;13;59.97461;952.7449;;;;
2019/04/26 01:36:29;;;;;;;4.2;1.5;;;;;;;12.98;60.01953;952.6944;;;;
2019/04/26 01:38:54;;;;;;;3.7;1.6;;;;;;;12.85;60.83398;952.7434;;;;
2019/04/26 01:41:36;;;;;;;4.6;1.5;;;;;;;12.85;61.62012;952.7222;;;;
2019/04/26 01:44:02;;;;;;;5;1.8;;;;;;;12.76;61.26172;952.7877;;;;
2019/04/26 01:46:21;;;;;;;3.4;1.7;;;;;;;12.83;62.02246;952.8333;;;;
2019/04/26 01:48:42;;;;;;;3.6;1.7;;;;;;;12.69;61.89941;952.8221;;;;
2019/04/26 01:51:07;;;;;;;4;1.7;;;;;;;12.71;61.16113;952.7761;;;;
2019/04/26 01:53:33;;;;;;;3.1;1.5;;;;;;;12.73;60.96875;952.6601;;;;
2019/04/26 01:55:58;;;;;;;3.9;1.8;;;;;;;12.65;61.0957;952.7731;;;;
2019/04/26 01:58:30;;;;;;;3.5;1.5;;;;;;;12.73;60.73633;952.8049;;;;
2019/04/26 02:01:05;;;;;;;4.2;1.8;;;;;;;12.65;61.33789;952.8522;;;;
2019/04/26 02:03:28;;;;;;;4;1.7;;;;;;;12.63;61.42676;952.7894;;;;
2019/04/26 02:05:46;;;;;;;3.6;1.7;;;;;;;12.36;62.78809;952.818;;;;
2019/04/26 02:08:11;;;;;;;3.8;2.1;;;;;;;12.3;62.99805;952.8808;;;;
2019/04/26 02:10:36;;;;;;;4.2;2;;;;;;;12.34;62.38086;952.9149;;;;
2019/04/26 02:13:01;;;;;;;4.3;1.7;;;;;;;12.33;62.57617;952.8604;;;;
2019/04/26 02:15:27;;;;;;;5.3;1.6;;;;;;;12.3;62.7793;952.8897;;;;
2019/04/26 02:17:52;;;;;;;4.8;1.9;;;;;;;12.31;62.2832;952.9141;;;;
2019/04/26 02:20:17;;;;;;;4;1.8;;;;;;;12.24;62.5166;952.8822;;;;
2019/04/26 02:23:04;;;;;;;4.6;1.8;;;;;;;12.21;62.61621;952.8161;;;;
2019/04/26 02:25:10;;;;;;;4.1;1.4;;;;;;;12.17;63.10742;952.9988;;;;
2019/04/26 02:27:35;;;;;;;3.5;1.3;;;;;;;12.15;63.20703;953.0014;;;;
2019/04/26 02:30:00;;;;;;;4.1;1.3;;;;;;;11.99;63.47363;952.8908;;;;
2019/04/26 02:32:25;;;;;;;4.5;1.6;;;;;;;11.94;63.33887;952.8873;;;;
2019/04/26 02:34:50;;;;;;;5.9;1.5;;;;;;;11.9;63.40332;952.8699;;;;
2019/04/26 02:37:15;;;;;;;4.1;1.4;;;;;;;11.95;63.16797;952.9427;;;;
2019/04/26 02:39:40;;;;;;;2.5;1.2;;;;;;;12.03;62.66992;952.9922;;;;
2019/04/26 02:42:06;;;;;;;3;1.2;;;;;;;12.09;62.43848;953.011;;;;
2019/04/26 02:44:46;;;;;;;2.8;1.2;;;;;;;12.04;62.84668;953.0728;;;;
2019/04/26 02:47:54;;;;;;;2.4;1.1;;;;;;;12.16;62.23828;953.2006;;;;
2019/04/26 02:49:39;;;;;;;2.7;1.2;;;;;;;12.1;62.51953;953.1458;;;;
2019/04/26 02:51:54;;;;;;;2.6;1.2;;;;;;;11.95;62.62402;953.1567;;;;
2019/04/26 02:54:43;;;;;;;2.5;1.2;;;;;;;11.83;63.7041;953.2164;;;;
2019/04/26 02:56:47;;;;;;;3.6;1.2;;;;;;;11.69;64.06348;953.0566;;;;
2019/04/26 02:59:12;;;;;;;2.7;1.1;;;;;;;11.64;64.25391;953.0574;;;;
2019/04/26 03:01:37;;;;;;;3.2;1.3;;;;;;;11.72;64.24121;953.1498;;;;
2019/04/26 03:04:02;;;;;;;3.3;1.5;;;;;;;11.85;63.50977;953.1627;;;;
2019/04/26 03:06:33;;;;;;;3.2;1.3;;;;;;;11.81;63.56348;953.2317;;;;
2019/04/26 03:08:58;;;;;;;2.7;1.1;;;;;;;11.63;64.1582;953.2849;;;;
2019/04/26 03:11:23;;;;;;;3;1.2;;;;;;;11.68;63.78613;953.3145;;;;
2019/04/26 03:14:42;;;;;;;3.4;1.2;;;;;;;11.86;63.32715;953.2446;;;;
2019/04/26 03:16:33;;;;;;;2.8;1.1;;;;;;;11.75;64.00391;953.3295;;;;
2019/04/26 03:18:46;;;;;;;3.1;1.2;;;;;;;11.77;63.34863;953.3272;;;;
2019/04/26 03:21:05;;;;;;;3.6;1.3;;;;;;;11.76;63.37012;953.306;;;;
2019/04/26 03:23:30;;;;;;;2.9;1.3;;;;;;;11.65;63.62012;953.3699;;;;
2019/04/26 03:25:56;;;;;;;4.4;1.4;;;;;;;11.52;63.99414;953.4004;;;;
2019/04/26 03:28:21;;;;;;;4.3;1.4;;;;;;;11.62;63.8125;953.3028;;;;
2019/04/26 03:30:56;;;;;;;3;1.2;;;;;;;11.51;64.59277;953.3748;;;;
2019/04/26 03:42:54;;;;;;;3;1.2;;;;;;;11.24;65.26563;953.4369;;;;
2019/04/26 03:45:19;;;;;;;3.5;1.4;;;;;;;11.08;65.64453;953.5183;;;;
2019/04/26 03:47:44;;;;;;;2.1;1.1;;;;;;;11.17;65.07031;953.5402;;;;
2019/04/26 03:50:09;;;;;;;2.5;1.3;;;;;;;11.31;64.22754;953.5264;;;;
2019/04/26 03:52:37;;;;;;;2.6;1.1;;;;;;;11.33;64.4834;953.572;;;;
2019/04/26 03:55:04;;;;;;;2.1;1.2;;;;;;;11.28;64.94824;953.5165;;;;
2019/04/26 04:02:28;;;;;;;3.8;1.4;;;;;;;11.08;65.62207;953.5615;;;;
2019/04/26 04:04:52;;;;;;;2.1;1.2;;;;;;;11.06;65.25;953.6591;;;;
2019/04/26 04:07:12;;;;;;;2.7;1.1;;;;;;;11.09;65.23145;953.6259;;;;
2019/04/26 04:09:37;;;;;;;2.9;1.4;;;;;;;10.95;65.56836;953.6577;;;;
2019/04/26 04:12:12;;;;;;;3.2;1.2;;;;;;;11.08;65.11426;953.7401;;;;
2019/04/26 04:14:37;;;;;;;3.1;1.4;;;;;;;10.97;65.62891;953.7424;;;;
2019/04/26 04:17:21;;;;;;;3.8;1.3;;;;;;;10.87;66.02832;953.7303;;;;
2019/04/26 04:19:32;;;;;;;4.4;1.7;;;;;;;10.87;65.90039;953.692;;;;
2019/04/26 04:21:55;;;;;;;5.1;1.6;;;;;;;10.87;65.82129;953.6439;;;;
2019/04/26 04:24:20;;;;;;;3.7;1.4;;;;;;;10.74;66.11133;953.6564;;;;
2019/04/26 04:26:46;;;;;;;4.4;1.4;;;;;;;10.59;66.77832;953.6885;;;;
2019/04/26 04:29:17;;;;;;;3;1.4;;;;;;;10.52;67.40137;953.7686;;;;
2019/04/26 04:31:36;;;;;;;3.2;1.5;;;;;;;10.59;66.1582;953.9096;;;;
2019/04/26 04:34:01;;;;;;;2.7;1.3;;;;;;;10.55;66.35742;953.8707;;;;
2019/04/26 04:36:26;;;;;;;1.7;1.3;;;;;;;10.45;67.35449;953.9586;;;;
2019/04/26 04:38:51;;;;;;;3.9;1.6;;;;;;;10.51;67.14746;954.1214;;;;
2019/04/26 04:41:36;;;;;;;3.2;1.3;;;;;;;10.59;66.19141;954.1401;;;;
2019/04/26 04:44:01;;;;;;;2.7;1.5;;;;;;;10.53;66.17188;954.1983;;;;
2019/04/26 04:48:57;;;;;;;2.9;1.6;;;;;;;10.02;67.98926;954.2288;;;;
2019/04/26 04:51:16;;;;;;;2.6;1.5;;;;;;;10.26;67.02734;954.2495;;;;
2019/04/26 04:53:57;;;;;;;2;1.4;;;;;;;10.19;68.13184;954.2428;;;;
2019/04/26 04:56:23;;;;;;;3.5;1.7;;;;;;;10.2;66.76465;954.1944;;;;
2019/04/26 04:58:48;;;;;;;2.7;1.6;;;;;;;10.11;67.39355;954.2988;;;;
2019/04/26 05:01:20;;;;;;;2.4;1.5;;;;;;;10.19;67.37305;954.3128;;;;
2019/04/26 05:03:39;;;;;;;1.9;1.6;;;;;;;10.06;67.4209;954.3122;;;;
2019/04/26 05:06:21;;;;;;;2.6;1.8;;;;;;;9.9;68.16602;954.3962;;;;
2019/04/26 05:08:29;;;;;;;3.3;1.7;;;;;;;10.08;67.5293;954.4013;;;;
2019/04/26 05:10:54;;;;;;;4.5;1.9;;;;;;;10.22;67.05566;954.3621;;;;
2019/04/26 05:13:19;;;;;;;2.2;1.9;;;;;;;10.19;66.71777;954.365;;;;
2019/04/26 05:15:52;;;;;;;2.5;1.9;;;;;;;10.2;67.0752;954.4637;;;;
2019/04/26 05:18:10;;;;;;;2.2;1.8;;;;;;;10.32;66.33398;954.457;;;;
2019/04/26 05:20:35;;;;;;;2.7;2.1;;;;;;;9.97;67.47656;954.4462;;;;
2019/04/26 05:23:35;;;;;;;2.8;2;;;;;;;10.08;67.54004;954.4445;;;;
2019/04/26 05:26:44;;;;;;;2.4;2.1;;;;;;;10.11;67.10742;954.5374;;;;
2019/04/26 05:33:18;;;;;;;2.7;1.8;;;;;;;10.36;66.39746;954.8226;;;;
2019/04/26 05:35:45;;;;;;;2.7;2.4;;;;;;;10.4;65.62207;954.7668;;;;
2019/04/26 05:38:08;;;;;;;3.2;2.2;;;;;;;10.43;65.92676;954.8592;;;;
2019/04/26 05:40:33;;;;;;;4.2;2.5;;;;;;;10.43;66.16797;954.9724;;;;
2019/04/26 05:43:08;;;;;;;3.9;2.3;;;;;;;10.42;65.74023;955.0042;;;;
2019/04/26 05:45:29;;;;;;;3.9;2.2;;;;;;;10.39;66.12695;955.0673;;;;
2019/04/26 05:47:58;;;;;;;4.1;2.6;;;;;;;10.32;66.19824;955.2213;;;;
2019/04/26 05:50:19;;;;;;;3.7;2.7;;;;;;;10.37;66.14844;955.3032;;;;
2019/04/26 05:52:41;;;;;;;2.6;2.2;;;;;;;10.61;65.52832;955.2719;;;;
2019/04/26 05:55:19;;;;;;;3.8;2.2;;;;;;;10.61;65.76953;955.2328;;;;
2019/04/26 05:57:32;;;;;;;3;2.3;;;;;;;10.59;65.5127;955.2222;;;;
2019/04/26 05:59:56;;;;;;;2.3;1.9;;;;;;;10.74;65.0293;955.2598;;;;
2019/04/26 06:05:15;;;;;;;3.9;2.2;;;;;;;10.71;64.875;955.2456;;;;
2019/04/26 06:07:45;;;;;;;2.6;2;;;;;;;10.82;64.73047;955.3354;;;;
2019/04/26 06:10:11;;;;;;;4.2;2.6;;;;;;;10.78;65.08203;955.3823;;;;
2019/04/26 06:12:21;;;;;;;4.4;2.7;;;;;;;10.88;64.45117;955.4339;;;;
2019/04/26 06:14:53;;;;;;;3.3;1.8;;;;;;;10.98;64.12109;955.3463;;;;
2019/04/26 06:17:21;;;;;;;2.3;1.9;;;;;;;10.97;64.18848;955.3378;;;;
2019/04/26 06:19:55;;;;;;;2.8;2.1;;;;;;;10.89;64.45117;955.2896;;;;
2019/04/26 06:22:04;;;;;;;2.5;1.8;;;;;;;11.02;64.15039;955.3376;;;;
2019/04/26 06:24:29;;;;;;;3.2;1.7;;;;;;;11.15;63.70801;955.3641;;;;
2019/04/26 06:27:03;;;;;;;9.7;2.7;;;;;;;11.04;64.01465;955.4358;;;;
2019/04/26 06:29:19;;;;;;;3.4;1.9;;;;;;;11.05;64.33887;955.378;;;;
2019/04/26 06:31:45;;;;;;;2.8;1.8;;;;;;;11.2;63.79492;955.3729;;;;
2019/04/26 06:34:36;;;;;;;3.4;1.8;;;;;;;11.33;62.62793;955.5298;;;;
2019/04/26 06:37:13;;;;;;;2.9;1.8;;;;;;;11.22;63.01367;955.545;;;;
2019/04/26 06:39:32;;;;;;;2.9;1.9;;;;;;;11.37;62.23047;955.6169;;;;
2019/04/26 06:42:05;;;;;;;3.5;1.6;;;;;;;11.39;62.47461;955.7017;;;;
2019/04/26 06:44:23;;;;;;;2.3;1.5;;;;;;;11.45;61.91797;955.6925;;;;
2019/04/26 06:47:07;;;;;;;2.7;1.5;;;;;;;11.41;62.12012;955.6613;;;;
2019/04/26 06:49:19;;;;;;;3.2;1.6;;;;;;;11.56;61.69043;955.6381;;;;
2019/04/26 06:51:38;;;;;;;3.2;1.7;;;;;;;11.57;61.3584;955.6283;;;;
2019/04/26 06:54:03;;;;;;;1.6;1.5;;;;;;;11.54;61.70117;955.5742;;;;
2019/04/26 06:56:30;;;;;;;2.9;1.7;;;;;;;11.73;61.0127;955.6339;;;;
2019/04/26 06:58:53;;;;;;;4.7;1.6;;;;;;;11.72;60.6416;955.6564;;;;
2019/04/26 07:01:20;;;;;;;2.1;1.5;;;;;;;11.82;60.59766;955.5815;;;;
2019/04/26 07:03:44;;;;;;;2.4;1.6;;;;;;;11.84;61.83594;955.6582;;;;
2019/04/26 07:06:10;;;;;;;3.8;1.6;;;;;;;11.99;61.29102;955.713;;;;
2019/04/26 07:08:35;;;;;;;2.7;1.5;;;;;;;12;60.58691;955.7693;;;;
2019/04/26 07:11:00;;;;;;;1.5;1.4;;;;;;;12.05;59.84375;955.7637;;;;
2019/04/26 07:13:44;;;;;;;2.2;1.3;;;;;;;11.99;59.68652;955.8181;;;;
2019/04/26 07:16:05;;;;;;;3;1.7;;;;;;;12.03;60.07227;955.866;;;;
2019/04/26 07:18:36;;;;;;;1.7;1.5;;;;;;;12.07;59.54785;955.9797;;;;
2019/04/26 07:21:07;;;;;;;2.3;1.6;;;;;;;12.18;59.28516;955.8947;;;;
2019/04/26 07:24:40;;;;;;;3;1.5;;;;;;;12.29;59.01074;955.731;;;;
2019/04/26 07:28:19;;;;;;;4;1.5;;;;;;;12.45;58.75684;955.8367;;;;
2019/04/26 07:30:51;;;;;;;2.4;1.4;;;;;;;12.45;58.57129;955.8759;;;;
2019/04/26 07:33:23;;;;;;;1.8;1.5;;;;;;;12.59;57.83789;955.8229;;;;
2019/04/26 07:35:47;;;;;;;3.7;1.7;;;;;;;12.63;57.60059;955.8622;;;;
2019/04/26 07:38:56;;;;;;;3.3;1.5;;;;;;;12.62;57.4248;955.916;;;;
2019/04/26 07:42:16;;;;;;;3.6;1.4;;;;;;;12.71;57.85352;955.9981;;;;
2019/04/26 07:44:54;;;;;;;3.6;1.4;;;;;;;12.82;57.9502;956.0478;;;;
2019/04/26 07:47:09;;;;;;;3.7;1.5;;;;;;;12.85;57.13086;956.111;;;;
2019/04/26 07:49:34;;;;;;;2.6;1.5;;;;;;;12.89;57.3916;956.1718;;;;
2019/04/26 07:51:59;;;;;;;1.9;1.4;;;;;;;12.83;57.0127;956.1606;;;;
2019/04/26 07:55:58;;;;;;;3;1.4;;;;;;;12.94;56.84277;956.2888;;;;
2019/04/26 07:58:48;;;;;;;2.3;1.5;;;;;;;12.81;57.13672;956.3333;;;;
2019/04/26 08:04:07;;;;;;;2.3;1.5;;;;;;;12.59;58;956.2501;;;;
2019/04/26 08:06:31;;;;;;;2.9;1.5;;;;;;;12.33;58.48535;956.3419;;;;
2019/04/26 08:09:13;;;;;;;2.8;1.6;;;;;;;12.31;59.00195;956.4045;;;;
2019/04/26 08:11:47;;;;;;;4.1;1.7;;;;;;;12.26;59.21387;956.4098;;;;
2019/04/26 08:14:12;;;;;;;3.2;1.9;;;;;;;12.18;59.55078;956.5262;;;;
2019/04/26 08:16:49;;;;;;;3;1.8;;;;;;;12.09;60.03516;956.488;;;;
2019/04/26 08:19:04;;;;;;;2.8;1.9;;;;;;;12.19;59.71191;956.5433;;;;
2019/04/26 08:21:32;;;;;;;2.9;1.9;;;;;;;12.07;60.34473;956.5636;;;;
2019/04/26 08:26:46;;;;;;;3.3;2.3;;;;;;;12.01;60.69336;956.6611;;;;
2019/04/26 08:29:27;;;;;;;3.1;2.1;;;;;;;12.13;60.09766;956.6671;;;;
2019/04/26 08:31:52;;;;;;;4.3;1.8;;;;;;;12.12;60.4209;956.7896;;;;
2019/04/26 08:34:17;;;;;;;2.8;1.9;;;;;;;12.05;60.45605;956.8705;;;;
2019/04/26 08:36:57;;;;;;;2.7;2.2;;;;;;;11.87;61.32031;956.8533;;;;
2019/04/26 08:39:14;;;;;;;3.5;2.4;;;;;;;11.88;61.125;956.8046;;;;
2019/04/26 08:41:42;;;;;;;3.9;2.6;;;;;;;12.05;60.75586;956.8353;;;;
2019/04/26 08:44:23;;;;;;;3.4;2.2;;;;;;;11.89;60.83789;956.8602;;;;
2019/04/26 08:46:42;;;;;;;3.3;2.5;;;;;;;11.78;62.05859;956.835;;;;
2019/04/26 08:49:02;;;;;;;3.7;2.4;;;;;;;11.86;61.1582;956.8884;;;;
2019/04/26 08:51:20;;;;;;;2.4;2.1;;;;;;;11.84;62.19336;956.8943;;;;
2019/04/26 08:53:45;;;;;;;6.1;3.5;;;;;;;11.88;61.5293;956.9394;;;;
2019/04/26 08:56:15;;;;;;;4.8;3.7;;;;;;;11.76;61.61621;956.8848;;;;
2019/04/26 08:58:57;;;;;;;3;2.7;;;;;;;11.85;61.46777;956.9464;;;;
2019/04/26 09:01:27;;;;;;;4.3;2.6;;;;;;;11.76;61.67383;957.0162;;;;
2019/04/26 09:04:00;;;;;;;3.7;2.5;;;;;;;11.78;62.0918;957.0619;;;;
2019/04/26 09:06:27;;;;;;;2.9;2.3;;;;;;;11.73;63.44727;957.0053;;;;
2019/04/26 09:08:38;;;;;;;3.9;2.5;;;;;;;11.76;62.15918;957.1199;;;;
2019/04/26 09:11:03;;;;;;;5.4;2.7;;;;;;;11.77;61.89551;957.1492;;;;
2019/04/26 09:13:28;;;;;;;4.5;2.4;;;;;;;11.81;61.34668;957.1242;;;;
2019/04/26 09:16:06;;;;;;;2.7;2.4;;;;;;;11.84;61.1084;957.1433;;;;
2019/04/26 09:18:31;;;;;;;3.5;2.5;;;;;;;11.75;63.53125;957.1955;;;;
2019/04/26 09:20:57;;;;;;;4.2;2.5;;;;;;;11.74;61.87793;957.1922;;;;
2019/04/26 09:23:53;;;;;;;2.9;2.6;;;;;;;11.66;61.33594;957.317;;;;
2019/04/26 09:25:49;;;;;;;3.7;2.4;;;;;;;11.58;61.69434;957.2726;;;;
2019/04/26 09:29:01;;;;;;;4.2;2.1;;;;;;;11.54;62.19629;957.4241;;;;
2019/04/26 09:30:53;;;;;;;3;2.2;;;;;;;11.62;61.5166;957.3599;;;;
2019/04/26 09:33:21;;;;;;;3.2;2.3;;;;;;;11.58;61.55664;957.4686;;;;
2019/04/26 09:35:27;;;;;;;3.4;2.3;;;;;;;11.59;61.90527;957.4322;;;;
2019/04/26 09:37:52;;;;;;;3.2;2.3;;;;;;;11.5;62.49023;957.3103;;;;
2019/04/26 09:40:17;;;;;;;2.5;2.1;;;;;;;11.63;61.66602;957.3027;;;;
2019/04/26 09:42:47;;;;;;;2.6;2.4;;;;;;;11.61;61.5498;957.2562;;;;
2019/04/26 09:45:23;;;;;;;6.7;2.4;;;;;;;11.64;62.3252;957.2672;;;;
2019/04/26 09:47:41;;;;;;;2.7;2.2;;;;;;;11.7;62.53223;957.3568;;;;
2019/04/26 09:50:13;;;;;;;5;2.7;;;;;;;11.75;62.25;957.313;;;;
2019/04/26 09:52:26;;;;;;;4.8;2.9;;;;;;;11.62;62.43945;957.3901;;;;
2019/04/26 09:54:48;;;;;;;3.5;3.1;;;;;;;11.57;62.85742;957.4783;;;;
2019/04/26 09:57:13;;;;;;;4.1;3.7;;;;;;;11.5;63.49414;957.4931;;;;
2019/04/26 09:59:38;;;;;;;3.6;3;;;;;;;11.39;63.69727;957.4901;;;;
2019/04/26 10:02:04;;;;;;;3.9;3.2;;;;;;;11.23;64.58398;957.5535;;;;
2019/04/26 10:04:28;;;;;;;4.4;3.3;;;;;;;11.3;64.90625;957.4767;;;;
2019/04/26 10:06:54;;;;;;;4.7;3.6;;;;;;;11.24;64.96582;957.5347;;;;
2019/04/26 10:09:20;;;;;;;4.2;3.8;;;;;;;11.06;66.125;957.4695;;;;
2019/04/26 10:11:50;;;;;;;4.2;3.8;;;;;;;11.07;66.51953;957.4641;;;;
2019/04/26 10:14:13;;;;;;;4.2;3.8;;;;;;;11.11;68.06836;957.4344;;;;
2019/04/26 10:19:05;;;;;;;4.3;3.9;;;;;;;11.06;68.02539;957.4214;;;;
2019/04/26 10:21:26;;;;;;;4.9;4.4;;;;;;;10.97;68.79688;957.4642;;;;
2019/04/26 10:23:52;;;;;;;5.4;4.2;;;;;;;10.87;70.11719;957.4563;;;;
2019/04/26 10:26:17;;;;;;;5.5;3.9;;;;;;;10.69;71.48047;957.5466;;;;
2019/04/26 10:28:44;;;;;;;4.5;4.1;;;;;;;10.64;72.05859;957.4471;;;;
2019/04/26 10:31:12;;;;;;;3.6;3.3;;;;;;;10.71;72.41602;957.5927;;;;
2019/04/26 10:33:46;;;;;;;4.2;3.7;;;;;;;10.69;72.36719;957.725;;;;
2019/04/26 10:36:11;;;;;;;4.2;3.8;;;;;;;10.44;73.56738;957.7823;;;;
2019/04/26 10:38:48;;;;;;;4.2;3.5;;;;;;;10.51;71.70313;957.8795;;;;
2019/04/26 10:41:33;;;;;;;4.2;3.8;;;;;;;10.59;71.64746;957.8906;;;;
2019/04/26 10:44:10;;;;;;;6.3;3.6;;;;;;;10.52;72.6709;957.9316;;;;
2019/04/26 10:46:35;;;;;;;3.5;3.3;;;;;;;10.46;73.4209;957.9584;;;;
2019/04/26 10:49:07;;;;;;;3.9;3.4;;;;;;;10.51;74.05078;957.8762;;;;
2019/04/26 10:51:38;;;;;;;4;3.6;;;;;;;10.43;74.07227;957.8047;;;;
2019/04/26 10:54:33;;;;;;;3.5;3.2;;;;;;;10.36;73.83008;957.8412;;;;
2019/04/26 10:56:38;;;;;;;3.5;3.2;;;;;;;10.45;73.91309;957.8817;;;;
2019/04/26 10:58:59;;;;;;;2.7;2.5;;;;;;;10.51;73.91406;957.9928;;;;
2019/04/26 11:01:17;;;;;;;2.9;2;;;;;;;10.45;72.6709;958.012;;;;
2019/04/26 11:03:41;;;;;;;3.4;2;;;;;;;10.41;72.45703;958.0327;;;;
2019/04/26 11:06:06;;;;;;;2.3;2;;;;;;;10.55;72.00977;958.0332;;;;
2019/04/26 11:08:31;;;;;;;3;1.5;;;;;;;10.5;71.44922;958.1027;;;;
2019/04/26 11:10:57;;;;;;;2.5;1.5;;;;;;;10.55;70.16797;958.0071;;;;
2019/04/26 11:13:22;;;;;;;1.3;1.2;;;;;;;10.53;69.79688;958.0958;;;;
2019/04/26 11:15:47;;;;;;;2.7;1.2;;;;;;;10.41;68.67188;958.1065;;;;
2019/04/26 11:18:12;;;;;;;1.6;1.1;;;;;;;10.52;68.37891;958.1443;;;;
2019/04/26 11:20:37;;;;;;;1.8;1;;;;;;;10.57;67.96094;958.0792;;;;
2019/04/26 11:23:03;;;;;;;2.4;1.4;;;;;;;10.67;67.08984;958.2356;;;;
2019/04/26 11:25:28;;;;;;;2.1;1.5;;;;;;;10.57;67.28223;958.1965;;;;
2019/04/26 11:27:53;;;;;;;2.5;0.9;;;;;;;10.49;68.06348;958.2513;;;;
2019/04/26 11:30:21;;;;;;;2;1;;;;;;;10.59;68.67773;958.2076;;;;
2019/04/26 11:32:47;;;;;;;1.7;1;;;;;;;10.47;68.76367;958.2137;;;;
2019/04/26 11:35:12;;;;;;;0.9;0.9;;;;;;;10.57;69.19238;958.2488;;;;
2019/04/26 11:37:37;;;;;;;2;0.8;;;;;;;10.68;68.30078;958.3215;;;;
2019/04/26 11:40:02;;;;;;;1.4;0.8;;;;;;;10.64;67.88086;958.2555;;;;
2019/04/26 11:42:28;;;;;;;2.1;0.7;;;;;;;10.49;68.44434;958.4681;;;;
2019/04/26 11:44:54;;;;;;;0.8;0.8;;;;;;;10.52;68.73535;958.4311;;;;
2019/04/26 11:47:33;;;;;;;1.6;0.7;;;;;;;10.45;67.88574;958.4545;;;;
2019/04/26 11:50:08;;;;;;;1.5;0.7;;;;;;;10.38;67.26465;958.5567;;;;
2019/04/26 11:52:33;;;;;;;1.6;0.6;;;;;;;10.27;66.68457;958.6092;;;;
2019/04/26 11:54:58;;;;;;;1;0.6;;;;;;;10.05;67.47852;958.5414;;;;
2019/04/26 11:57:27;;;;;;;0.8;0.7;;;;;;;10.13;69.21582;958.5256;;;;
2019/04/26 11:59:57;;;;;;;1.3;0.5;;;;;;;10.24;67.78223;958.5342;;;;
2019/04/26 12:02:33;;;;;;;1.6;0.5;;;;;;;10.22;66.96289;958.4744;;;;
2019/04/26 12:05:14;;;;;;;2.1;0.6;;;;;;;10.16;68.22949;958.5929;;;;
2019/04/26 12:07:39;;;;;;;1.3;0.5;;;;;;;10.11;67.50977;958.758;;;;
2019/04/26 12:10:02;;;;;;;1.1;0.5;;;;;;;10;67.53809;958.8806;;;;
2019/04/26 12:12:26;;;;;;;1.8;0.4;;;;;;;9.8;68.10547;958.9667;;;;
2019/04/26 12:15:13;;;;;;;2.1;0.5;;;;;;;9.86;68.4248;958.9492;;;;
2019/04/26 12:17:38;;;;;;;2;0.5;;;;;;;9.7;68.68652;958.9143;;;;
2019/04/26 12:20:15;;;;;;;1.8;0.4;;;;;;;9.74;68.73926;959.0412;;;;
2019/04/26 12:22:45;;;;;;;0.6;0.5;;;;;;;9.71;69.51465;959.0658;;;;
2019/04/26 12:25:10;;;;;;;1.3;0.4;;;;;;;9.82;69.1875;959.3172;;;;
2019/04/26 12:27:35;;;;;;;1.8;0.4;;;;;;;9.87;71.03418;959.4038;;;;
2019/04/26 12:30:01;;;;;;;0.9;0.4;;;;;;;9.68;71.76172;959.5671;;;;
2019/04/26 12:32:26;;;;;;;0.7;0.4;;;;;;;9.61;72.07129;959.7551;;;;
2019/04/26 12:34:53;;;;;;;1.1;0.5;;;;;;;9.47;73.75781;959.7542;;;;
2019/04/26 12:37:18;;;;;;;1.1;0.5;;;;;;;9.62;73.92188;959.7024;;;;
2019/04/26 12:39:48;;;;;;;3;0.6;;;;;;;9.64;73.68457;959.4492;;;;
2019/04/26 12:42:26;;;;;;;1.9;0.6;;;;;;;9.5;75.00195;959.3742;;;;
2019/04/26 12:45:42;;;;;;;2.1;0.8;;;;;;;9.42;75.89453;959.4025;;;;
2019/04/26 12:47:36;;;;;;;2;0.8;;;;;;;9.31;76.8418;959.4334;;;;
2019/04/26 12:49:55;;;;;;;2;0.8;;;;;;;9.23;78.9043;959.5176;;;;
2019/04/26 12:52:20;;;;;;;1.5;0.8;;;;;;;9.21;80.22949;959.5674;;;;
2019/04/26 12:54:45;;;;;;;0.9;0.6;;;;;;;8.88;78.80566;959.6284;;;;
2019/04/26 12:57:10;;;;;;;1.6;0.6;;;;;;;8.93;81.32422;959.7679;;;;
2019/04/26 12:59:35;;;;;;;1;0.8;;;;;;;9.05;80.32617;959.6149;;;;
2019/04/26 13:02:04;;;;;;;1.8;0.8;;;;;;;9.18;81.70508;959.5695;;;;
2019/04/26 13:04:40;;;;;;;1.5;0.9;;;;;;;9.34;79.74805;959.6479;;;;
2019/04/26 13:07:16;;;;;;;1.1;0.8;;;;;;;9.36;80.26953;959.7068;;;;
2019/04/26 13:10:03;;;;;;;0.9;0.7;;;;;;;9.09;81.45703;959.9327;;;;
2019/04/26 13:12:15;;;;;;;1.1;0.7;;;;;;;9.03;80.85059;960.0198;;;;
2019/04/26 13:17:52;;;;;;;0.9;0.5;;;;;;;8.84;78.24707;960.1133;;;;
2019/04/26 13:20:13;;;;;;;1.1;0.5;;;;;;;8.65;79.09473;960.0759;;;;
2019/04/26 13:22:38;;;;;;;0.6;0.4;;;;;;;8.58;80.6748;960.0941;;;;
2019/04/26 13:25:03;;;;;;;0.9;0.3;;;;;;;8.64;80.77832;959.9553;;;;
2019/04/26 13:27:48;;;;;;;0.4;0.3;;;;;;;8.83;78.67969;960.0189;;;;
2019/04/26 13:30:13;;;;;;;1.1;0.4;;;;;;;8.82;79.57324;960.0664;;;;
2019/04/26 13:32:47;;;;;;;0.9;0.3;;;;;;;8.84;77.06641;960.1653;;;;
2019/04/26 13:35:18;;;;;;;0.9;0.4;;;;;;;8.83;78.41699;960.1961;;;;
2019/04/26 13:37:43;;;;;;;0.8;0.4;;;;;;;8.91;79.62402;960.133;;;;
2019/04/26 13:40:08;;;;;;;1.6;0.6;;;;;;;8.84;80.09277;960.2645;;;;
2019/04/26 13:42:34;;;;;;;0.7;0.5;;;;;;;8.72;78.17871;960.3002;;;;
2019/04/26 13:45:07;;;;;;;1.2;0.6;;;;;;;8.55;78.60742;960.3045;;;;
2019/04/26 13:50:06;;;;;;;1;0.6;;;;;;;8.85;80.74805;960.0688;;;;
2019/04/26 13:52:14;;;;;;;0.8;0.7;;;;;;;8.83;80.32031;960.0271;;;;
2019/04/26 13:54:39;;;;;;;1.2;0.7;;;;;;;9.06;78.30859;959.9523;;;;
2019/04/26 13:57:04;;;;;;;1.5;0.6;;;;;;;9.13;79.66406;960.0031;;;;
2019/04/26 13:59:29;;;;;;;1.4;0.5;;;;;;;9.07;75.89258;959.9821;;;;
2019/04/26 14:01:54;;;;;;;0.6;0.6;;;;;;;8.92;78.99512;959.9026;;;;
2019/04/26 14:04:19;;;;;;;1.6;0.7;;;;;;;8.77;77.61523;959.915;;;;
2019/04/26 14:06:47;;;;;;;0.6;0.5;;;;;;;8.87;78.2998;960.0581;;;;
2019/04/26 14:09:12;;;;;;;1.3;0.6;;;;;;;8.7;79.73535;960.1583;;;;
2019/04/26 14:11:37;;;;;;;2.6;0.7;;;;;;;8.95;79.1377;960.1431;;;;
2019/04/26 14:14:15;;;;;;;0.8;0.3;;;;;;;8.81;79.10156;960.137;;;;
2019/04/26 14:16:40;;;;;;;1.9;0.5;;;;;;;8.65;77.8916;960.1539;;;;
2019/04/26 14:19:15;;;;;;;1.1;0.6;;;;;;;8.69;78.45996;960.1077;;;;
2019/04/26 14:21:43;;;;;;;0.9;0.6;;;;;;;8.75;78.37988;960.0769;;;;
2019/04/26 14:26:45;;;;;;;1.6;0.9;;;;;;;8.64;80.84668;960.2062;;;;
2019/04/26 14:28:59;;;;;;;1.6;0.6;;;;;;;8.65;80.6416;960.2798;;;;
2019/04/26 14:31:48;;;;;;;1.6;0.9;;;;;;;8.57;79.75586;960.4333;;;;
2019/04/26 14:34:18;;;;;;;1.3;0.8;;;;;;;8.64;82.0957;960.5531;;;;
2019/04/26 14:36:43;;;;;;;3.4;2.5;;;;;;;8.57;80.83301;960.5975;;;;
2019/04/26 14:39:08;;;;;;;1.7;0.9;;;;;;;8.46;80.98438;960.6666;;;;
2019/04/26 14:41:34;;;;;;;1.9;1.1;;;;;;;8.65;81.02051;960.6437;;;;
2019/04/26 14:43:59;;;;;;;1;0.8;;;;;;;8.72;81.42188;960.6082;;;;
2019/04/26 14:46:24;;;;;;;1.4;0.7;;;;;;;8.86;79.64844;960.4846;;;;
2019/04/26 14:48:49;;;;;;;1.5;1.1;;;;;;;8.75;79.29785;960.332;;;;
2019/04/26 14:51:14;;;;;;;2.1;0.8;;;;;;;8.57;80.13477;960.3075;;;;
2019/04/26 14:53:40;;;;;;;1.7;0.9;;;;;;;8.59;81.82129;960.3797;;;;
2019/04/26 14:56:05;;;;;;;1.5;0.6;;;;;;;8.52;80.85938;960.3459;;;;
2019/04/26 14:58:30;;;;;;;1.1;0.8;;;;;;;8.66;81.88086;960.3481;;;;
2019/04/26 15:00:57;;;;;;;1;0.7;;;;;;;8.86;82.20508;960.2156;;;;
2019/04/26 15:03:31;;;;;;;0.6;0.5;;;;;;;8.82;80.72949;960.1883;;;;
2019/04/26 15:08:14;;;;;;;1.1;0.8;;;;;;;8.81;80.33984;960.1151;;;;
2019/04/26 15:10:39;;;;;;;0.7;0.6;;;;;;;8.66;80.10547;960.2004;;;;
2019/04/26 15:13:05;;;;;;;1.3;1;;;;;;;8.82;81.52246;960.1965;;;;
2019/04/26 15:15:30;;;;;;;0.7;0.6;;;;;;;8.83;80.5498;960.257;;;;